Time;durP1;ratioP1;P1;durP2;ratioP2;P2;SDS_P1;SDS_P2;PMS_P1;PMS_P2;Temp;Humidity;BMP_temperature;BMP_pressure;BME280_temperature;BME280_humidity;BME280_pressure;Samples;Min_cycle;Max_cycle;Signal;HPM_P1;HPM_P2
2022/07/15 00:01:45;;;;;;;4.78;3.15;;;20.80;94.50;;;;;;5093275;28;20672;-63
2022/07/15 00:04:12;;;;;;;4.07;3.38;;;20.80;94.40;;;;;;5074480;28;20068;-62
2022/07/15 00:06:40;;;;;;;3.80;3.40;;;20.80;94.20;;;;;;5089794;28;20051;-63
2022/07/15 00:09:07;;;;;;;7.07;4.05;;;20.80;94.70;;;;;;5093084;28;20048;-62
2022/07/15 00:11:34;;;;;;;5.45;3.67;;;20.80;94.90;;;;;;5087392;28;20047;-62
2022/07/15 00:14:01;;;;;;;6.72;3.30;;;20.80;94.70;;;;;;5083645;28;20043;-62
2022/07/15 00:16:29;;;;;;;5.80;3.67;;;20.80;94.70;;;;;;5093158;28;20044;-63
2022/07/15 00:18:56;;;;;;;5.03;3.17;;;20.70;94.80;;;;;;5093271;28;20043;-63
2022/07/15 00:21:22;;;;;;;9.30;3.75;;;20.70;94.70;;;;;;5089945;28;20071;-62
2022/07/15 00:23:49;;;;;;;6.55;3.28;;;20.70;95.00;;;;;;5084552;28;20059;-62
2022/07/15 00:26:16;;;;;;;4.68;3.55;;;20.60;94.50;;;;;;5092808;28;20051;-63
2022/07/15 00:28:43;;;;;;;5.07;3.60;;;20.60;95.20;;;;;;5088572;28;20040;-62
2022/07/15 00:31:09;;;;;;;5.80;3.47;;;20.60;94.90;;;;;;5084072;28;20056;-62
2022/07/15 00:33:37;;;;;;;10.90;3.75;;;20.60;95.40;;;;;;5058433;28;20052;-63
2022/07/15 00:36:04;;;;;;;6.25;3.67;;;20.70;95.30;;;;;;5074811;28;20524;-63
2022/07/15 00:38:30;;;;;;;9.32;3.55;;;20.60;95.40;;;;;;5070083;28;20492;-62
2022/07/15 00:40:57;;;;;;;5.55;3.45;;;20.50;95.50;;;;;;5066043;28;20044;-62
2022/07/15 00:43:24;;;;;;;;;;;20.50;95.40;;;;;;5075152;28;20051;-63
2022/07/15 00:45:52;;;;;;;12.27;3.15;;;20.50;95.50;;;;;;5066977;28;20285;-62
2022/07/15 00:48:19;;;;;;;4.05;3.10;;;20.50;95.20;;;;;;5066271;28;20052;-62
2022/07/15 00:50:47;;;;;;;6.18;3.40;;;20.40;95.40;;;;;;5092042;28;20051;-62
2022/07/15 00:53:19;;;;;;;6.13;3.15;;;20.40;95.50;;;;;;5092660;28;20050;-63
2022/07/15 00:55:48;;;;;;;4.05;3.05;;;20.40;94.80;;;;;;5077217;28;20037;-62
2022/07/15 00:58:17;;;;;;;3.40;3.08;;;20.40;94.40;;;;;;5084247;28;20554;-63
2022/07/15 01:00:46;;;;;;;4.78;3.40;;;20.30;94.20;;;;;;5074038;28;20044;-62
2022/07/15 01:03:16;;;;;;;5.95;2.78;;;20.30;93.50;;;;;;5074339;28;20048;-62
2022/07/15 01:05:44;;;;;;;3.72;2.97;;;20.30;93.50;;;;;;5071050;28;20194;-63
2022/07/15 01:08:10;;;;;;;5.07;2.80;;;20.30;93.40;;;;;;5084928;28;20040;-63
2022/07/15 01:10:39;;;;;;;5.95;2.67;;;20.20;92.90;;;;;;5092033;28;20036;-62
2022/07/15 01:13:06;;;;;;;10.23;2.92;;;20.20;93.40;;;;;;5068292;28;20056;-63
2022/07/15 01:15:33;;;;;;;4.70;3.20;;;20.20;93.20;;;;;;5057729;28;20123;-62
2022/07/15 01:18:03;;;;;;;3.95;2.90;;;20.20;93.00;;;;;;5073635;28;20036;-62
2022/07/15 01:20:32;;;;;;;4.80;2.65;;;20.20;93.80;;;;;;5087501;28;20036;-62
2022/07/15 01:23:01;;;;;;;3.80;2.80;;;20.20;93.60;;;;;;5064454;28;20123;-63
2022/07/15 01:25:33;;;;;;;6.03;3.08;;;20.20;94.30;;;;;;5074001;28;20040;-62
2022/07/15 01:28:06;;;;;;;7.35;3.60;;;20.10;94.20;;;;;;5073856;28;20535;-62
2022/07/15 01:30:33;;;;;;;3.75;2.90;;;20.00;94.50;;;;;;5058525;28;20052;-62
2022/07/15 01:33:00;;;;;;;;;;;19.90;94.30;;;;;;5065921;28;20032;-62
2022/07/15 01:35:28;;;;;;;6.40;3.63;;;19.80;95.50;;;;;;5073673;28;19927;-62
2022/07/15 01:37:55;;;;;;;7.88;3.42;;;19.60;96.30;;;;;;5073796;28;20477;-62
2022/07/15 01:40:22;;;;;;;;;;;19.40;96.30;;;;;;5061832;28;20044;-62
2022/07/15 01:42:50;;;;;;;7.78;3.70;;;19.20;96.80;;;;;;5071779;28;19920;-62
2022/07/15 01:45:17;;;;;;;7.88;3.80;;;19.20;97.60;;;;;;5073503;28;20493;-62
2022/07/15 01:47:48;;;;;;;12.15;4.00;;;19.00;98.60;;;;;;5073834;28;20039;-62
2022/07/15 01:50:35;;;;;;;8.88;4.15;;;18.90;99.20;;;;;;5057386;28;20102;-62
2022/07/15 01:53:09;;;;;;;7.55;4.38;;;18.80;99.90;;;;;;5033466;28;20048;-62
2022/07/15 01:55:36;;;;;;;6.68;3.78;;;18.60;99.90;;;;;;5051314;28;20040;-62
2022/07/15 01:58:02;;;;;;;8.63;4.32;;;18.60;99.90;;;;;;5071244;28;20040;-62
2022/07/15 02:00:29;;;;;;;13.15;5.15;;;18.50;99.90;;;;;;5068306;28;20060;-62
2022/07/15 02:02:57;;;;;;;7.82;4.30;;;18.40;99.90;;;;;;5073321;28;20563;-62
2022/07/15 02:05:24;;;;;;;8.00;4.35;;;18.50;99.90;;;;;;5089068;28;20044;-62
2022/07/15 02:07:53;;;;;;;7.95;4.10;;;18.40;99.90;;;;;;5064947;28;20040;-62
2022/07/15 02:10:22;;;;;;;8.27;4.30;;;18.40;99.90;;;;;;5072903;28;20052;-62
2022/07/15 02:12:51;;;;;;;5.35;3.88;;;18.40;99.90;;;;;;5070570;28;20130;-62
2022/07/15 02:15:23;;;;;;;6.90;4.18;;;18.40;99.90;;;;;;5055779;28;20056;-62
2022/07/15 02:17:55;;;;;;;9.43;4.93;;;18.30;99.90;;;;;;5076045;28;20040;-62
2022/07/15 02:20:27;;;;;;;8.90;4.72;;;18.30;99.90;;;;;;5077039;28;20048;-62
2022/07/15 02:22:58;;;;;;;9.02;4.30;;;18.30;99.90;;;;;;5073127;28;20052;-62
2022/07/15 02:25:26;;;;;;;9.48;4.50;;;18.20;99.90;;;;;;5060041;28;20076;-62
2022/07/15 02:27:58;;;;;;;9.02;4.38;;;18.10;99.90;;;;;;5075747;28;20040;-62
2022/07/15 02:30:27;;;;;;;7.82;4.70;;;18.10;99.90;;;;;;5076890;28;20055;-63
2022/07/15 02:32:55;;;;;;;5.90;4.93;;;18.10;99.90;;;;;;5070358;28;20036;-62
2022/07/15 02:35:24;;;;;;;7.05;4.80;;;18.00;99.90;;;;;;5071238;28;20044;-62
2022/07/15 02:37:51;;;;;;;;;;;17.90;99.90;;;;;;5077812;28;20044;-62
2022/07/15 02:40:18;;;;;;;11.52;5.22;;;17.80;99.90;;;;;;5076801;28;20392;-62
2022/07/15 02:42:53;;;;;;;10.70;5.07;;;17.90;99.90;;;;;;5067099;28;20076;-62
2022/07/15 02:45:21;;;;;;;9.82;4.53;;;17.80;99.90;;;;;;5070793;28;20136;-62
2022/07/15 02:47:49;;;;;;;7.93;5.05;;;17.80;99.90;;;;;;5076603;28;20079;-62
2022/07/15 02:50:23;;;;;;;8.30;4.70;;;17.90;99.90;;;;;;5072669;28;20424;-62
2022/07/15 02:52:49;;;;;;;14.70;5.75;;;17.90;99.90;;;;;;5064315;28;20544;-63
2022/07/15 02:55:17;;;;;;;8.65;5.75;;;17.80;99.90;;;;;;5094963;28;20036;-63
2022/07/15 02:57:43;;;;;;;10.23;6.18;;;17.50;99.90;;;;;;5076772;28;20046;-62
2022/07/15 03:00:19;;;;;;;8.48;6.50;;;17.20;99.90;;;;;;5078775;28;20077;-62
2022/07/15 03:02:49;;;;;;;13.82;7.10;;;17.00;99.90;;;;;;5068210;28;20050;-63
2022/07/15 03:05:17;;;;;;;10.73;7.13;;;16.90;99.90;;;;;;5076486;28;20135;-63
2022/07/15 03:07:45;;;;;;;;;;;16.80;99.90;;;;;;5059651;28;20101;-62
2022/07/15 03:10:16;;;;;;;12.25;7.68;;;16.70;99.90;;;;;;5057640;28;20009;-63
2022/07/15 03:12:43;;;;;;;12.95;7.70;;;16.70;99.90;;;;;;5073297;28;20048;-63
2022/07/15 03:15:13;;;;;;;12.70;7.38;;;16.70;99.90;;;;;;5076437;28;20048;-62
2022/07/15 03:17:41;;;;;;;10.88;7.30;;;16.60;99.90;;;;;;5064573;28;20063;-63
2022/07/15 03:20:09;;;;;;;13.57;8.88;;;16.50;99.90;;;;;;5075855;28;20504;-62
2022/07/15 03:22:42;;;;;;;13.82;7.93;;;16.50;99.90;;;;;;5076287;28;20044;-62
2022/07/15 03:25:09;;;;;;;14.18;8.20;;;16.40;99.90;;;;;;5066533;28;20055;-62
2022/07/15 03:27:36;;;;;;;13.00;8.18;;;16.40;99.90;;;;;;5071144;28;20052;-63
2022/07/15 03:30:06;;;;;;;10.63;8.63;;;16.40;99.90;;;;;;5076107;28;20071;-62
2022/07/15 03:32:32;;;;;;;;;;;16.30;99.90;;;;;;5073528;28;20603;-63
2022/07/15 03:34:59;;;;;;;14.27;9.18;;;16.30;99.90;;;;;;5065114;28;20338;-63
2022/07/15 03:37:30;;;;;;;15.43;9.82;;;16.30;99.90;;;;;;5067756;28;20072;-63
2022/07/15 03:39:56;;;;;;;17.98;10.15;;;16.30;99.90;;;;;;5075588;28;20090;-63
2022/07/15 03:42:23;;;;;;;13.15;9.52;;;16.20;99.90;;;;;;5075974;28;20497;-63
2022/07/15 03:44:50;;;;;;;15.88;9.90;;;16.20;99.90;;;;;;5067426;28;20040;-63
2022/07/15 03:47:17;;;;;;;16.85;10.52;;;16.20;99.90;;;;;;5069278;28;20132;-63
2022/07/15 03:49:45;;;;;;;16.48;10.90;;;16.20;99.90;;;;;;5075876;28;20036;-63
2022/07/15 03:52:13;;;;;;;17.13;10.93;;;16.20;99.90;;;;;;5069753;28;20044;-63
2022/07/15 03:54:40;;;;;;;13.93;9.90;;;16.20;99.90;;;;;;5064101;28;20048;-63
2022/07/15 03:57:07;;;;;;;11.55;9.15;;;16.20;99.90;;;;;;5075468;28;20040;-63
2022/07/15 03:59:34;;;;;;;17.85;10.75;;;16.20;99.90;;;;;;5093821;28;20040;-62
2022/07/15 04:02:01;;;;;;;18.00;11.98;;;16.30;99.90;;;;;;5084545;28;20044;-63
2022/07/15 04:04:28;;;;;;;16.42;11.02;;;16.20;99.90;;;;;;5067223;28;20135;-63
2022/07/15 04:06:56;;;;;;;17.45;11.82;;;16.20;99.90;;;;;;5075237;28;20044;-63
2022/07/15 04:09:23;;;;;;;17.15;10.00;;;16.30;99.90;;;;;;5075506;28;20040;-63
2022/07/15 04:11:51;;;;;;;15.40;10.02;;;16.20;99.90;;;;;;5080168;28;20048;-63
2022/07/15 04:14:18;;;;;;;18.13;10.40;;;16.20;99.90;;;;;;5066727;28;20563;-63
2022/07/15 04:16:45;;;;;;;16.67;10.55;;;16.20;99.90;;;;;;5078604;28;20044;-63
2022/07/15 04:19:27;;;;;;;16.00;10.48;;;16.20;99.90;;;;;;5055207;28;20045;-63
2022/07/15 04:21:57;;;;;;;17.92;10.70;;;16.20;99.90;;;;;;5056602;28;20448;-63
2022/07/15 04:24:24;;;;;;;19.90;12.68;;;16.20;99.90;;;;;;5084794;28;20063;-63
2022/07/15 04:26:52;;;;;;;19.45;12.30;;;16.20;99.90;;;;;;5051930;22;20383;-59
2022/07/15 04:29:19;;;;;;;18.17;12.00;;;16.10;99.90;;;;;;5021850;28;20059;-59
2022/07/15 04:31:46;;;;;;;16.95;11.43;;;16.20;99.90;;;;;;5021841;28;20119;-59
2022/07/15 04:34:21;;;;;;;22.33;12.15;;;16.10;99.90;;;;;;5018053;28;20071;-60
2022/07/15 04:36:50;;;;;;;20.35;11.73;;;16.20;99.90;;;;;;5013402;28;20044;-59
2022/07/15 04:39:18;;;;;;;17.17;11.25;;;16.20;99.90;;;;;;5001491;28;20522;-60
2022/07/15 04:41:45;;;;;;;16.33;11.40;;;16.30;99.90;;;;;;5001969;28;20038;-60
2022/07/15 04:44:11;;;;;;;18.15;11.88;;;16.30;99.90;;;;;;5000139;28;20050;-60
2022/07/15 04:46:39;;;;;;;18.50;11.50;;;16.30;99.90;;;;;;5003878;28;20069;-60
2022/07/15 04:52:16;;;;;;;18.98;12.07;;;16.30;99.90;;;;;;4990681;28;20127;-59
2022/07/15 04:54:46;;;;;;;15.88;11.20;;;16.30;99.90;;;;;;4998365;28;20045;-59
2022/07/15 04:57:14;;;;;;;17.15;11.50;;;16.40;99.90;;;;;;5012794;28;20050;-60
2022/07/15 04:59:41;;;;;;;14.55;10.30;;;16.40;99.90;;;;;;5011449;28;20050;-60
2022/07/15 05:02:12;;;;;;;17.08;10.98;;;16.40;99.90;;;;;;5006900;28;20518;-60
2022/07/15 05:04:44;;;;;;;15.65;10.60;;;16.40;99.90;;;;;;5003132;28;20104;-60
2022/07/15 05:07:11;;;;;;;17.50;11.93;;;16.40;99.90;;;;;;5011020;28;20284;-60
2022/07/15 05:09:38;;;;;;;17.50;10.70;;;16.50;99.90;;;;;;5011293;28;20100;-60
2022/07/15 05:12:06;;;;;;;21.83;11.27;;;16.60;99.90;;;;;;4994009;28;20046;-60
2022/07/15 05:14:43;;;;;;;19.17;11.60;;;16.60;99.90;;;;;;5003034;28;20441;-60
2022/07/15 05:17:10;;;;;;;18.63;11.77;;;16.70;99.90;;;;;;5011166;28;20077;-59
2022/07/15 05:19:37;;;;;;;19.05;10.95;;;16.90;99.90;;;;;;4997310;28;20415;-59
2022/07/15 05:22:04;;;;;;;15.70;10.95;;;17.00;99.90;;;;;;5004183;28;20039;-60
2022/07/15 05:24:32;;;;;;;14.93;11.45;;;17.00;99.90;;;;;;5004586;28;20051;-60
2022/07/15 05:27:02;;;;;;;19.35;11.48;;;17.00;99.90;;;;;;5004383;28;20075;-59
2022/07/15 05:29:31;;;;;;;13.27;10.07;;;17.10;99.90;;;;;;4988153;28;20514;-60
2022/07/15 05:31:58;;;;;;;14.38;10.38;;;17.20;99.90;;;;;;5002287;28;20054;-60
2022/07/15 05:34:27;;;;;;;15.32;10.32;;;17.30;99.90;;;;;;5010769;28;20078;-60
2022/07/15 05:36:53;;;;;;;15.32;10.75;;;17.30;99.90;;;;;;5007879;28;20185;-60
2022/07/15 05:39:22;;;;;;;15.85;11.32;;;17.30;99.90;;;;;;5004386;28;20046;-60
2022/07/15 05:41:52;;;;;;;17.92;9.55;;;17.40;99.90;;;;;;5010256;28;20049;-60
2022/07/15 05:44:19;;;;;;;17.40;11.10;;;17.50;99.90;;;;;;5010858;28;20072;-59
2022/07/15 05:46:48;;;;;;;18.92;11.60;;;17.50;99.90;;;;;;4997907;28;20072;-60
2022/07/15 05:49:15;;;;;;;14.13;9.88;;;17.50;99.90;;;;;;5002902;28;20077;-60
2022/07/15 05:51:42;;;;;;;13.43;9.05;;;17.50;99.90;;;;;;4989984;28;20034;-60
2022/07/15 05:54:13;;;;;;;16.60;10.25;;;17.60;99.90;;;;;;4990504;28;20038;-60
2022/07/15 05:56:42;;;;;;;16.02;10.45;;;17.60;99.90;;;;;;4998539;28;20054;-60
2022/07/15 05:59:13;;;;;;;18.42;11.63;;;17.60;99.90;;;;;;5019750;28;20108;-59
2022/07/15 06:01:40;;;;;;;17.80;10.23;;;17.60;99.90;;;;;;5006559;28;20852;-60
2022/07/15 06:04:07;;;;;;;11.52;8.75;;;17.60;99.90;;;;;;5006491;28;20042;-59
2022/07/15 06:06:34;;;;;;;12.15;9.13;;;17.40;99.90;;;;;;5007397;28;20146;-59
2022/07/15 06:09:02;;;;;;;10.85;8.18;;;17.40;99.90;;;;;;5009127;28;20258;-59
2022/07/15 06:11:28;;;;;;;;;;;17.50;99.90;;;;;;5009785;28;20050;-59
2022/07/15 06:13:58;;;;;;;12.15;8.15;;;17.50;99.90;;;;;;4987691;28;19922;-60
2022/07/15 06:16:25;;;;;;;15.10;9.52;;;17.50;99.90;;;;;;5001631;28;20517;-60
2022/07/15 06:18:52;;;;;;;14.70;9.30;;;17.70;99.90;;;;;;5003426;28;20045;-60
2022/07/15 06:21:19;;;;;;;14.95;9.52;;;17.80;99.90;;;;;;4989758;28;20101;-59
2022/07/15 06:23:46;;;;;;;15.05;9.40;;;17.90;99.90;;;;;;4990213;28;20100;-60
2022/07/15 06:26:13;;;;;;;14.90;9.45;;;18.00;99.90;;;;;;5001445;28;20046;-60
2022/07/15 06:28:41;;;;;;;10.27;8.02;;;18.10;99.90;;;;;;5009925;28;20096;-60
2022/07/15 06:31:17;;;;;;;12.43;7.95;;;18.20;99.90;;;;;;5003829;28;20076;-60
2022/07/15 06:33:45;;;;;;;11.65;8.63;;;18.30;99.90;;;;;;5002497;28;20505;-60
2022/07/15 06:36:13;;;;;;;14.18;8.55;;;18.50;99.90;;;;;;5010540;28;20384;-60
2022/07/15 06:38:43;;;;;;;12.23;8.65;;;18.70;99.90;;;;;;5010014;28;20038;-60
2022/07/15 06:41:10;;;;;;;10.93;9.23;;;18.70;99.90;;;;;;4995645;28;20050;-60
2022/07/15 06:43:38;;;;;;;14.27;8.43;;;18.60;99.90;;;;;;5009163;28;20054;-60
2022/07/15 06:46:09;;;;;;;16.13;9.02;;;18.70;99.90;;;;;;5009370;28;20042;-60
2022/07/15 06:48:39;;;;;;;15.27;8.82;;;18.70;99.90;;;;;;4994297;28;20098;-60
2022/07/15 06:51:06;;;;;;;;;;;18.90;99.90;;;;;;4991646;28;20057;-59
2022/07/15 06:53:33;;;;;;;13.30;9.43;;;19.00;99.90;;;;;;4989802;28;19926;-60
2022/07/15 06:56:01;;;;;;;14.30;10.57;;;19.20;99.90;;;;;;4992382;28;20119;-59
2022/07/15 06:58:27;;;;;;;13.75;9.25;;;19.40;99.90;;;;;;5001329;28;20038;-60
2022/07/15 07:00:56;;;;;;;12.23;9.05;;;19.40;99.90;;;;;;5009362;28;20134;-59
2022/07/15 07:03:22;;;;;;;11.60;8.00;;;19.30;99.90;;;;;;4995845;28;20066;-59
2022/07/15 07:06:10;;;;;;;13.38;8.10;;;19.30;99.90;;;;;;4995521;28;20050;-60
2022/07/15 07:08:37;;;;;;;11.98;8.38;;;19.20;99.90;;;;;;5009706;28;20049;-59
2022/07/15 07:11:04;;;;;;;12.02;8.50;;;19.30;99.90;;;;;;5014272;28;20045;-59
2022/07/15 07:13:31;;;;;;;13.65;8.70;;;19.30;99.90;;;;;;5002219;28;20045;-59
2022/07/15 07:15:58;;;;;;;13.05;9.15;;;19.40;99.90;;;;;;5004481;28;20122;-60
2022/07/15 07:18:25;;;;;;;12.73;9.93;;;19.40;99.90;;;;;;5014122;28;20049;-59
2022/07/15 07:20:52;;;;;;;10.07;8.40;;;19.40;99.90;;;;;;5011446;28;20113;-59
2022/07/15 07:23:20;;;;;;;14.32;8.90;;;19.40;99.90;;;;;;4996612;28;20101;-60
2022/07/15 07:25:47;;;;;;;19.10;9.80;;;19.40;99.90;;;;;;5011599;28;20053;-60
2022/07/15 07:28:13;;;;;;;9.82;8.32;;;19.40;99.90;;;;;;5013119;28;20045;-59
2022/07/15 07:30:40;;;;;;;15.73;9.65;;;19.60;99.90;;;;;;5010206;28;20046;-60
2022/07/15 07:33:07;;;;;;;14.45;9.93;;;19.60;99.90;;;;;;5005747;28;20549;-59
2022/07/15 07:35:34;;;;;;;13.32;8.40;;;19.80;99.90;;;;;;5013921;28;20088;-60
2022/07/15 07:38:00;;;;;;;13.18;8.77;;;20.00;99.90;;;;;;5014097;28;20054;-60
2022/07/15 07:40:27;;;;;;;12.80;8.55;;;20.00;99.90;;;;;;5001168;28;20057;-60
2022/07/15 07:42:56;;;;;;;8.65;7.10;;;20.20;99.90;;;;;;5005725;28;20045;-60
2022/07/15 07:45:23;;;;;;;10.95;7.75;;;20.50;99.90;;;;;;5013792;28;20046;-59
2022/07/15 07:47:50;;;;;;;12.57;7.78;;;20.70;99.90;;;;;;5013541;28;20050;-60
2022/07/15 07:50:16;;;;;;;11.55;7.53;;;20.80;99.90;;;;;;4997160;28;20034;-60
2022/07/15 07:52:43;;;;;;;11.55;7.60;;;20.80;99.90;;;;;;5005571;28;20057;-60
2022/07/15 07:55:10;;;;;;;10.65;7.47;;;20.80;99.90;;;;;;5013718;28;20042;-60
2022/07/15 07:57:50;;;;;;;8.88;7.05;;;20.90;99.90;;;;;;5007952;28;20030;-60
2022/07/15 08:00:18;;;;;;;12.50;7.45;;;21.10;99.90;;;;;;5006794;28;20503;-60
2022/07/15 08:02:46;;;;;;;13.10;7.10;;;21.30;99.90;;;;;;5013280;28;20045;-60
2022/07/15 08:05:15;;;;;;;10.07;6.50;;;21.30;99.90;;;;;;5013580;28;20053;-60
2022/07/15 08:07:50;;;;;;;10.57;7.35;;;21.20;99.90;;;;;;4996094;28;20053;-60
2022/07/15 08:10:19;;;;;;;10.48;7.18;;;21.20;99.90;;;;;;5006073;28;20069;-60
2022/07/15 08:12:46;;;;;;;9.32;6.35;;;21.20;99.90;;;;;;5010351;28;20418;-60
2022/07/15 08:15:15;;;;;;;8.13;6.43;;;21.40;99.90;;;;;;5002953;28;20050;-60
2022/07/15 08:17:42;;;;;;;10.30;7.18;;;21.50;99.90;;;;;;5007004;28;20073;-61
2022/07/15 08:20:09;;;;;;;8.82;7.20;;;21.60;99.90;;;;;;5005560;28;20076;-60
2022/07/15 08:22:36;;;;;;;8.02;6.60;;;21.80;99.90;;;;;;5009226;28;20057;-61
2022/07/15 08:25:04;;;;;;;11.98;7.53;;;21.90;99.90;;;;;;4990861;28;20046;-60
2022/07/15 08:27:30;;;;;;;8.82;7.10;;;22.10;99.90;;;;;;4992008;28;20117;-61
2022/07/15 08:29:57;;;;;;;10.02;6.55;;;22.20;99.90;;;;;;4993309;28;20057;-61
2022/07/15 08:32:24;;;;;;;9.27;6.63;;;22.20;99.90;;;;;;4993705;28;20054;-60
2022/07/15 08:34:51;;;;;;;8.80;6.32;;;22.70;99.90;;;;;;4986795;28;20043;-60
2022/07/15 08:37:18;;;;;;;11.82;5.57;;;22.60;99.90;;;;;;5004852;28;20042;-60
2022/07/15 08:39:45;;;;;;;8.05;5.35;;;22.40;99.90;;;;;;5011954;28;20401;-60
2022/07/15 08:42:13;;;;;;;7.93;5.20;;;22.10;99.90;;;;;;5005354;28;20045;-61
2022/07/15 08:44:40;;;;;;;7.40;4.85;;;22.00;99.90;;;;;;4998398;28;20049;-61
2022/07/15 08:47:07;;;;;;;6.95;5.70;;;21.90;99.90;;;;;;5012661;28;20065;-61
2022/07/15 08:49:57;;;;;;;7.47;4.80;;;22.00;99.90;;;;;;5004227;28;20042;-61
2022/07/15 08:52:25;;;;;;;7.20;5.38;;;21.90;99.90;;;;;;4996017;28;20058;-60
2022/07/15 08:54:53;;;;;;;7.65;4.85;;;21.90;99.90;;;;;;5011100;28;20046;-60
2022/07/15 08:57:20;;;;;;;7.40;4.95;;;21.90;99.90;;;;;;5012610;28;20037;-61
2022/07/15 08:59:47;;;;;;;9.43;5.50;;;21.80;99.90;;;;;;4999567;28;20403;-60
2022/07/15 09:02:14;;;;;;;9.10;6.18;;;22.10;99.90;;;;;;5012434;28;20052;-60
2022/07/15 09:05:18;;;;;;;7.43;5.82;;;22.30;99.90;;;;;;5012595;28;20080;-60
2022/07/15 09:07:54;;;;;;;7.88;5.95;;;22.40;99.90;;;;;;5006385;28;20061;-60
2022/07/15 09:10:46;;;;;;;7.18;5.72;;;22.60;99.90;;;;;;5004055;28;20449;-61
2022/07/15 09:13:38;;;;;;;6.68;5.82;;;22.70;99.90;;;;;;5005587;28;20061;-61
2022/07/15 09:16:08;;;;;;;8.77;5.80;;;22.80;99.90;;;;;;5012471;28;20053;-61
2022/07/15 09:18:38;;;;;;;7.20;6.20;;;22.70;99.90;;;;;;5002218;28;20089;-61
2022/07/15 09:21:22;;;;;;;9.40;6.22;;;22.80;99.90;;;;;;4995916;28;20466;-60
2022/07/15 09:23:56;;;;;;;5.75;5.05;;;22.90;99.90;;;;;;5012385;28;20042;-60
2022/07/15 09:26:36;;;;;;;10.18;6.13;;;22.50;99.90;;;;;;5000712;28;20050;-61
2022/07/15 09:33:34;;;;;;;8.40;5.88;;;22.30;99.90;;;;;;5004158;28;20529;-61
2022/07/15 09:37:57;;;;;;;8.15;5.82;;;22.10;99.90;;;;;;5010579;28;20513;-60
2022/07/15 09:40:25;;;;;;;10.07;5.60;;;22.30;99.90;;;;;;5011759;28;20065;-60
2022/07/15 09:43:06;;;;;;;8.10;6.15;;;22.60;99.90;;;;;;5003991;28;20051;-61
2022/07/15 09:45:33;;;;;;;6.82;5.47;;;22.60;99.90;;;;;;5003812;28;20046;-60
2022/07/15 09:48:12;;;;;;;9.10;6.20;;;22.70;99.90;;;;;;5011983;28;20113;-60
2022/07/15 09:50:39;;;;;;;7.75;5.55;;;22.80;99.90;;;;;;5011335;28;20069;-60
2022/07/15 09:53:13;;;;;;;11.48;5.85;;;23.00;99.90;;;;;;4993419;28;20038;-61
2022/07/15 09:55:41;;;;;;;7.78;6.20;;;22.80;99.90;;;;;;5008501;28;20053;-59
2022/07/15 09:58:08;;;;;;;9.40;5.95;;;22.60;99.90;;;;;;5011786;28;20503;-59
2022/07/15 10:00:37;;;;;;;8.45;5.60;;;22.50;99.90;;;;;;4995414;28;20591;-59
2022/07/15 10:03:04;;;;;;;7.53;6.03;;;22.80;99.90;;;;;;5003316;28;20116;-59
2022/07/15 10:05:34;;;;;;;8.75;6.35;;;22.70;99.90;;;;;;5011753;28;20057;-59
2022/07/15 10:08:03;;;;;;;8.00;5.63;;;22.50;99.90;;;;;;5014589;28;20042;-59
2022/07/15 10:10:32;;;;;;;11.70;7.25;;;22.40;99.90;;;;;;5003118;28;20056;-59
2022/07/15 10:13:23;;;;;;;9.63;6.35;;;22.40;99.90;;;;;;5011668;28;20054;-59
2022/07/15 10:16:05;;;;;;;8.82;6.30;;;22.50;99.90;;;;;;5011363;28;20038;-59
2022/07/15 10:18:48;;;;;;;11.38;6.85;;;22.40;99.90;;;;;;4999619;28;20042;-59
2022/07/15 10:21:31;;;;;;;8.23;6.63;;;22.20;99.90;;;;;;4991801;28;20384;-59
2022/07/15 10:24:25;;;;;;;14.27;7.10;;;22.10;99.90;;;;;;4991428;28;20050;-58
2022/07/15 10:27:03;;;;;;;13.55;6.78;;;22.00;99.90;;;;;;5042500;22;20516;-61
2022/07/15 10:29:30;;;;;;;9.80;5.80;;;22.00;99.90;;;;;;5052618;28;20481;-61
2022/07/15 10:31:59;;;;;;;9.32;6.28;;;22.10;99.90;;;;;;5070226;28;20094;-61
2022/07/15 10:34:34;;;;;;;7.93;6.35;;;22.10;99.90;;;;;;5049948;28;20045;-61
2022/07/15 10:37:06;;;;;;;11.85;6.72;;;22.20;99.90;;;;;;5049424;28;20040;-61
2022/07/15 10:39:50;;;;;;;8.65;6.55;;;22.40;99.90;;;;;;5075180;28;20036;-61
2022/07/15 10:42:18;;;;;;;10.02;6.47;;;22.60;99.90;;;;;;5073027;28;20041;-61
2022/07/15 10:45:00;;;;;;;10.07;6.78;;;22.70;99.90;;;;;;5071694;28;20044;-61
2022/07/15 10:47:27;;;;;;;9.40;6.68;;;22.80;99.90;;;;;;5074770;28;20604;-61
2022/07/15 10:49:54;;;;;;;10.30;6.22;;;22.80;99.90;;;;;;5074181;28;20052;-61
2022/07/15 10:52:28;;;;;;;;;;;23.10;99.90;;;;;;5057401;28;20516;-61
2022/07/15 10:54:55;;;;;;;10.75;6.70;;;23.20;99.90;;;;;;5056913;28;20404;-61
2022/07/15 10:57:40;;;;;;;7.53;6.72;;;23.20;99.90;;;;;;5074423;28;20047;-61
2022/07/15 11:00:25;;;;;;;11.23;7.47;;;23.30;99.90;;;;;;5051798;28;20037;-61
2022/07/15 11:03:08;;;;;;;11.10;6.78;;;23.40;99.90;;;;;;5056711;28;20048;-61
2022/07/15 11:06:01;;;;;;;11.07;7.40;;;23.30;99.90;;;;;;5074264;28;20048;-61
2022/07/15 11:08:33;;;;;;;9.50;6.53;;;23.20;99.90;;;;;;5074277;28;20102;-61
2022/07/15 11:11:15;;;;;;;10.05;7.28;;;23.20;99.90;;;;;;5054506;28;20052;-61
2022/07/15 11:13:47;;;;;;;8.93;7.22;;;23.10;99.90;;;;;;5074363;28;20131;-61
2022/07/15 11:16:17;;;;;;;9.05;6.30;;;23.20;99.90;;;;;;5056460;28;20048;-61
2022/07/15 11:18:53;;;;;;;11.70;6.88;;;23.30;99.90;;;;;;5052894;28;20041;-61
2022/07/15 11:21:21;;;;;;;9.00;7.00;;;23.40;99.90;;;;;;5073708;28;20105;-61
2022/07/15 11:23:50;;;;;;;11.88;7.40;;;23.20;99.90;;;;;;5074014;28;20068;-61
2022/07/15 11:26:18;;;;;;;8.45;7.13;;;23.00;99.90;;;;;;5055946;28;20048;-61
2022/07/15 11:28:57;;;;;;;9.35;7.65;;;22.90;99.90;;;;;;5066172;28;20110;-61
2022/07/15 11:31:25;;;;;;;12.63;6.82;;;23.00;99.90;;;;;;5073664;28;20048;-61
2022/07/15 11:33:53;;;;;;;10.68;7.75;;;23.20;99.90;;;;;;5073998;28;20072;-61
2022/07/15 11:36:22;;;;;;;10.10;8.32;;;23.00;99.90;;;;;;5070771;28;20047;-61
2022/07/15 11:38:51;;;;;;;8.40;7.20;;;22.90;99.90;;;;;;5073624;28;20086;-61
2022/07/15 11:44:29;;;;;;;13.55;7.45;;;23.00;99.90;;;;;;5067520;28;20043;-61
2022/07/15 11:46:58;;;;;;;10.63;7.43;;;23.00;99.90;;;;;;5073952;28;20081;-61
2022/07/15 11:49:38;;;;;;;15.27;7.78;;;23.20;99.90;;;;;;5071308;28;20036;-61
2022/07/15 11:52:06;;;;;;;13.13;6.93;;;23.20;99.90;;;;;;5065132;28;20485;-61
2022/07/15 11:54:39;;;;;;;10.30;6.90;;;23.30;99.90;;;;;;5069197;28;20041;-61
2022/07/15 11:57:09;;;;;;;9.70;6.70;;;23.40;99.90;;;;;;5073559;28;20041;-61
2022/07/15 11:59:36;;;;;;;8.80;6.07;;;23.60;99.90;;;;;;5051251;28;20041;-61
2022/07/15 12:02:05;;;;;;;9.35;7.53;;;23.50;99.90;;;;;;5055055;28;20044;-61
2022/07/15 12:04:32;;;;;;;12.10;7.07;;;23.60;99.90;;;;;;5073787;28;20044;-61
2022/07/15 12:06:59;;;;;;;10.57;6.95;;;23.30;99.90;;;;;;5073350;28;20044;-61
2022/07/15 12:09:37;;;;;;;8.90;6.70;;;23.60;99.90;;;;;;5071274;28;20059;-61
2022/07/15 12:12:04;;;;;;;10.30;6.55;;;24.00;99.90;;;;;;5035416;28;20041;-61
2022/07/15 12:14:31;;;;;;;;;;;24.10;99.90;;;;;;5053448;28;20044;-61
2022/07/15 12:16:58;;;;;;;11.70;6.82;;;24.10;99.90;;;;;;5063612;28;19927;-61
2022/07/15 12:19:30;;;;;;;9.30;7.03;;;23.70;99.90;;;;;;5073111;28;20045;-61
2022/07/15 12:22:00;;;;;;;9.90;5.93;;;23.60;99.90;;;;;;5054771;28;20044;-61
2022/07/15 12:24:41;;;;;;;7.63;6.30;;;23.60;99.90;;;;;;5054973;28;20516;-61
2022/07/15 12:27:08;;;;;;;10.40;6.78;;;23.60;99.90;;;;;;5066718;28;20063;-61
2022/07/15 12:29:35;;;;;;;8.70;5.72;;;23.40;99.90;;;;;;5072753;28;20036;-61
2022/07/15 12:32:25;;;;;;;10.40;5.93;;;23.30;99.90;;;;;;5072914;28;20055;-61
2022/07/15 12:34:57;;;;;;;8.15;5.97;;;23.20;99.90;;;;;;5071407;28;20414;-61
2022/07/15 12:37:27;;;;;;;9.65;6.63;;;23.20;99.90;;;;;;5054942;28;20072;-61
2022/07/15 12:40:12;;;;;;;7.90;5.72;;;23.00;99.90;;;;;;5072156;28;20048;-61
2022/07/15 12:42:41;;;;;;;10.23;6.53;;;22.90;99.90;;;;;;5069945;28;20054;-61
2022/07/15 12:45:20;;;;;;;7.78;5.75;;;23.20;99.90;;;;;;5072509;28;20056;-61
2022/07/15 12:48:05;;;;;;;9.13;6.22;;;23.70;99.90;;;;;;5072116;28;20040;-61
2022/07/15 12:50:54;;;;;;;8.45;5.90;;;24.20;99.90;;;;;;5072034;28;20052;-61
2022/07/15 12:53:24;;;;;;;7.75;5.68;;;24.20;99.90;;;;;;5044686;28;20062;-61
2022/07/15 12:55:56;;;;;;;6.55;5.82;;;24.50;99.90;;;;;;5069642;28;20052;-61
2022/07/15 12:58:25;;;;;;;8.57;6.43;;;24.70;99.90;;;;;;5051582;28;20053;-66
2022/07/15 13:01:03;;;;;;;7.93;5.72;;;24.80;99.90;;;;;;5069747;28;20040;-61
2022/07/15 13:03:30;;;;;;;6.20;5.57;;;24.90;99.90;;;;;;5072429;28;20063;-61
2022/07/15 13:05:58;;;;;;;6.85;5.90;;;24.60;99.90;;;;;;5072022;28;20550;-61
2022/07/15 13:08:31;;;;;;;8.95;6.00;;;24.60;99.90;;;;;;5067309;28;20123;-61
2022/07/15 13:11:00;;;;;;;11.27;6.28;;;24.60;99.90;;;;;;5065481;28;20036;-60